Time;durP1;ratioP1;P1;durP2;ratioP2;P2;SDS_P1;SDS_P2;PMS_P1;PMS_P2;Temp;Humidity;BMP_temperature;BMP_pressure;BME280_temperature;BME280_humidity;BME280_pressure;Samples;Min_cycle;Max_cycle;Signal;HPM_P1;HPM_P2
2022/05/11 00:01:21;;;;;;;5.47;1.52;;;;;;;13.99;38.20;100828.38;5122227;28;20035;-85
2022/05/11 00:03:46;;;;;;;1.92;1.35;;;;;;;13.98;37.91;100828.69;5096631;28;20035;-85
2022/05/11 00:06:12;;;;;;;3.35;1.35;;;;;;;13.97;38.38;100822.34;5122340;27;20404;-85
2022/05/11 00:08:38;;;;;;;1.80;1.38;;;;;;;13.92;38.05;100818.84;5116075;27;20047;-84
2022/05/11 00:11:04;;;;;;;2.45;1.40;;;;;;;13.80;38.75;100822.06;5118124;27;20035;-84
2022/05/11 00:13:31;;;;;;;3.80;1.38;;;;;;;13.85;38.45;100821.97;5135256;27;20035;-85
2022/05/11 00:15:56;;;;;;;1.85;1.25;;;;;;;13.87;38.24;100814.22;5100618;28;20053;-85
2022/05/11 00:18:22;;;;;;;3.47;1.23;;;;;;;13.84;38.87;100814.81;5094247;28;20044;-85
2022/05/11 00:20:48;;;;;;;2.03;1.50;;;;;;;13.76;38.79;100810.00;5115020;27;20413;-87
2022/05/11 00:23:13;;;;;;;1.80;0.95;;;;;;;13.66;39.21;100810.94;5097418;28;20126;-87
2022/05/11 00:25:39;;;;;;;4.43;1.58;;;;;;;13.56;38.88;100806.41;5122093;27;20519;-86
2022/05/11 00:28:05;;;;;;;2.28;1.20;;;;;;;13.40;38.71;100804.16;5114374;27;20058;-87
2022/05/11 00:30:31;;;;;;;2.58;1.55;;;;;;;13.37;39.73;100811.09;5114632;28;20040;-85
2022/05/11 00:32:59;;;;;;;2.08;1.23;;;;;;;13.44;39.18;100803.25;5113340;28;20069;-86
2022/05/11 00:35:26;;;;;;;2.53;1.20;;;;;;;13.39;39.67;100802.50;5106041;28;20113;-86
2022/05/11 00:37:52;;;;;;;1.80;1.25;;;;;;;13.36;38.78;100795.63;5094113;28;20039;-85
2022/05/11 00:40:19;;;;;;;5.38;1.40;;;;;;;13.23;39.16;100799.94;5094801;28;20521;-85
2022/05/11 00:42:44;;;;;;;5.47;1.70;;;;;;;13.18;39.10;100799.16;5093612;28;20101;-86
2022/05/11 00:45:11;;;;;;;3.08;1.40;;;;;;;13.25;39.73;100794.97;5092388;28;20498;-85
2022/05/11 00:47:58;;;;;;;2.40;1.33;;;;;;;13.34;39.43;100792.34;5093803;28;20401;-86
2022/05/11 00:50:28;;;;;;;4.03;1.30;;;;;;;13.32;39.18;100783.56;5075874;28;20703;-86
2022/05/11 00:52:59;;;;;;;3.38;1.55;;;;;;;13.27;39.20;100780.88;5098147;27;20048;-85
2022/05/11 00:55:37;;;;;;;5.72;1.75;;;;;;;13.25;39.64;100775.66;5077422;28;20040;-85
2022/05/11 00:58:11;;;;;;;3.55;1.20;;;;;;;13.22;39.50;100778.19;5105824;27;20067;-84
2022/05/11 01:00:37;;;;;;;3.08;1.35;;;;;;;13.08;39.79;100772.56;5092054;28;20051;-85
2022/05/11 01:03:12;;;;;;;2.83;1.40;;;;;;;13.05;39.19;100773.16;5079293;28;20044;-85
2022/05/11 01:05:40;;;;;;;2.35;1.30;;;;;;;12.96;40.39;100772.16;5095850;27;20039;-84
2022/05/11 01:08:07;;;;;;;2.73;0.93;;;;;;;12.94;39.92;100766.94;5119209;27;20054;-87
2022/05/11 01:10:32;;;;;;;4.30;1.52;;;;;;;12.89;39.85;100758.75;5127680;27;20831;-86
2022/05/11 01:13:01;;;;;;;2.72;1.05;;;;;;;12.83;40.12;100759.88;5115067;27;20036;-84
2022/05/11 01:15:29;;;;;;;4.50;1.52;;;;;;;12.73;39.94;100756.44;5117848;27;20035;-88
2022/05/11 01:17:56;;;;;;;3.65;1.38;;;;;;;12.80;40.14;100757.72;5095725;27;20075;-86
2022/05/11 01:20:23;;;;;;;2.03;1.30;;;;;;;12.84;39.81;100749.69;5111690;27;20035;-87
2022/05/11 01:23:13;;;;;;;1.95;1.25;;;;;;;12.99;39.55;100753.09;5116825;27;20406;-85
2022/05/11 01:25:39;;;;;;;3.55;1.40;;;;;;;13.08;39.55;100746.94;5113297;28;20039;-85
2022/05/11 01:28:16;;;;;;;3.15;1.48;;;;;;;13.06;39.23;100736.22;5111165;28;20048;-85
2022/05/11 01:30:48;;;;;;;4.32;1.40;;;;;;;13.07;38.92;100726.84;5097918;28;20135;-86
2022/05/11 01:33:17;;;;;;;4.43;1.40;;;;;;;13.10;40.04;100728.19;5112474;28;20048;-86
2022/05/11 01:35:49;;;;;;;1.58;1.23;;;;;;;13.18;39.34;100722.03;5098941;28;20040;-86
2022/05/11 01:38:38;;;;;;;4.70;1.25;;;;;;;13.25;39.47;100723.31;5092845;28;20039;-86
2022/05/11 01:41:04;;;;;;;;;;;;;;;13.32;38.73;100716.59;5111076;28;20127;-85
2022/05/11 01:43:32;;;;;;;3.42;1.40;;;;;;;13.41;38.79;100714.81;5109775;28;20006;-85
2022/05/11 01:45:59;;;;;;;3.70;1.27;;;;;;;13.44;38.34;100717.81;5107020;28;20105;-85
2022/05/11 01:48:25;;;;;;;3.70;1.20;;;;;;;13.45;38.75;100711.16;5093268;28;20040;-85
2022/05/11 01:50:51;;;;;;;5.03;1.27;;;;;;;13.49;38.81;100706.69;5101154;28;20043;-85
2022/05/11 01:53:16;;;;;;;2.17;1.55;;;;;;;13.48;38.45;100709.75;5104084;28;20399;-85
2022/05/11 01:55:42;;;;;;;4.45;1.80;;;;;;;13.36;38.60;100706.63;5094517;28;20134;-85
2022/05/11 01:58:09;;;;;;;5.72;1.85;;;;;;;13.44;38.34;100698.50;5090470;28;20046;-85
2022/05/11 02:00:36;;;;;;;1.90;1.10;;;;;;;13.48;38.14;100694.03;5096542;28;20036;-85
2022/05/11 02:03:02;;;;;;;4.90;1.50;;;;;;;13.54;38.33;100700.31;5109152;28;20114;-85
2022/05/11 02:08:13;;;;;;;2.00;1.40;;;;;;;13.65;37.93;100689.91;5096487;28;20040;-84
2022/05/11 02:10:38;;;;;;;2.17;1.42;;;;;;;13.67;37.68;100685.72;5105167;28;20032;-84
2022/05/11 02:13:05;;;;;;;3.10;1.13;;;;;;;13.77;38.05;100690.28;5103656;28;20028;-84
2022/05/11 02:15:30;;;;;;;6.57;2.15;;;;;;;13.87;37.03;100677.09;5099263;28;20089;-84
2022/05/11 02:17:56;;;;;;;3.22;1.38;;;;;;;13.95;37.12;100675.63;5092157;28;20043;-84
2022/05/11 02:20:23;;;;;;;3.05;1.30;;;;;;;14.01;37.05;100674.38;5095856;28;20077;-85
2022/05/11 02:22:48;;;;;;;2.47;1.35;;;;;;;14.05;36.55;100667.13;5092600;28;20601;-84
2022/05/11 02:25:18;;;;;;;2.25;1.27;;;;;;;14.17;36.68;100661.94;5110218;28;20131;-83
2022/05/11 02:27:45;;;;;;;4.00;1.50;;;;;;;14.29;36.86;100658.72;5093118;28;20044;-83
2022/05/11 02:30:15;;;;;;;2.70;1.70;;;;;;;14.25;36.87;100656.88;5092041;28;20040;-83
2022/05/11 02:32:41;;;;;;;4.18;1.65;;;;;;;14.24;36.17;100653.28;5090250;28;20028;-84
2022/05/11 02:35:13;;;;;;;4.30;1.70;;;;;;;14.17;36.28;100650.09;5107125;28;20039;-84
2022/05/11 02:37:39;;;;;;;3.45;1.50;;;;;;;14.05;36.40;100649.75;5096535;28;20494;-84
2022/05/11 02:40:05;;;;;;;1.88;1.10;;;;;;;14.15;36.88;100646.81;5091704;28;20039;-84
2022/05/11 02:42:31;;;;;;;2.92;1.50;;;;;;;14.20;36.84;100638.44;5104950;28;20070;-83
2022/05/11 02:44:57;;;;;;;2.05;1.33;;;;;;;14.09;36.49;100625.97;5092206;28;20113;-85
2022/05/11 02:47:22;;;;;;;3.78;1.50;;;;;;;13.78;36.44;100629.28;5108693;28;20514;-85
2022/05/11 02:49:48;;;;;;;4.78;1.45;;;;;;;13.67;37.13;100627.00;5104057;28;20039;-84
2022/05/11 02:52:14;;;;;;;2.85;1.90;;;;;;;13.67;37.24;100618.72;5107208;28;20067;-85
2022/05/11 02:54:41;;;;;;;7.70;2.88;;;;;;;13.68;37.15;100625.88;5097129;28;20039;-84
2022/05/11 02:57:07;;;;;;;6.28;2.28;;;;;;;13.66;37.03;100625.38;5099503;28;20035;-88
2022/05/11 02:59:32;;;;;;;6.30;1.77;;;;;;;13.70;37.37;100624.44;5097574;28;20486;-87
2022/05/11 03:01:58;;;;;;;2.55;1.63;;;;;;;13.84;36.95;100616.22;5103833;28;20044;-87
2022/05/11 03:04:24;;;;;;;4.43;2.10;;;;;;;13.83;36.47;100611.81;5100522;28;20048;-89
2022/05/11 03:06:50;;;;;;;3.30;1.90;;;;;;;13.83;36.47;100617.34;5095162;28;20059;-86
2022/05/11 03:09:16;;;;;;;8.70;2.00;;;;;;;13.86;36.70;100612.03;5073599;28;20070;-87
2022/05/11 03:11:43;;;;;;;3.75;1.85;;;;;;;13.86;36.59;100608.47;5101793;28;20035;-83
2022/05/11 03:14:09;;;;;;;3.75;2.13;;;;;;;13.90;36.75;100605.94;5110429;28;20070;-83
2022/05/11 03:16:36;;;;;;;6.05;2.30;;;;;;;13.76;36.64;100605.91;5104116;28;20466;-83
2022/05/11 03:19:02;;;;;;;5.60;1.75;;;;;;;13.75;36.38;100604.25;5103765;28;20036;-83
2022/05/11 03:21:28;;;;;;;9.48;2.40;;;;;;;13.86;36.24;100609.28;5105058;28;20135;-83
2022/05/11 03:23:54;;;;;;;6.25;2.58;;;;;;;13.87;35.85;100602.63;5109715;28;20059;-83
2022/05/11 03:26:20;;;;;;;3.83;2.08;;;;;;;13.71;37.23;100598.53;5091590;28;20051;-83
2022/05/11 03:28:46;;;;;;;5.63;2.20;;;;;;;13.79;36.75;100591.50;5092889;28;20048;-83
2022/05/11 03:31:17;;;;;;;4.63;2.20;;;;;;;13.92;36.46;100584.38;5098519;28;20109;-83
2022/05/11 03:36:28;;;;;;;4.28;2.13;;;;;;;14.01;36.23;100572.31;5110335;28;20042;-82
2022/05/11 03:38:53;;;;;;;3.00;1.88;;;;;;;14.13;35.68;100571.81;5111497;28;20039;-82
2022/05/11 03:41:19;;;;;;;6.70;2.25;;;;;;;14.28;35.12;100565.16;5108954;28;20425;-82
2022/05/11 03:43:45;;;;;;;3.95;2.00;;;;;;;14.31;35.19;100570.06;5115324;28;20066;-83
2022/05/11 03:46:10;;;;;;;7.63;1.92;;;;;;;14.29;35.68;100567.63;5110523;28;20058;-83
2022/05/11 03:48:37;;;;;;;3.58;2.13;;;;;;;14.28;34.87;100557.72;5115595;28;20470;-84
2022/05/11 03:51:04;;;;;;;2.63;2.08;;;;;;;14.28;35.36;100556.88;5104425;28;20047;-83
2022/05/11 03:53:31;;;;;;;6.15;2.65;;;;;;;14.19;35.83;100565.06;5097434;28;20035;-84
2022/05/11 03:55:57;;;;;;;6.05;2.08;;;;;;;14.27;35.30;100561.59;5096104;28;20163;-84
2022/05/11 03:58:22;;;;;;;6.20;2.22;;;;;;;14.29;35.27;100555.75;5120790;27;20467;-84
2022/05/11 04:00:48;;;;;;;3.00;1.80;;;;;;;14.29;34.58;100547.47;5120018;27;21220;-84
2022/05/11 04:03:14;;;;;;;5.25;2.15;;;;;;;14.25;35.25;100533.50;5114223;27;20028;-84
2022/05/11 04:05:39;;;;;;;3.90;1.83;;;;;;;14.27;34.97;100528.47;5102466;28;20135;-84
2022/05/11 04:08:05;;;;;;;5.00;2.03;;;;;;;14.17;34.86;100531.44;5091495;28;20031;-84
2022/05/11 04:10:31;;;;;;;6.90;2.28;;;;;;;14.14;34.93;100519.06;5111941;27;20039;-85
2022/05/11 04:12:58;;;;;;;6.20;2.53;;;;;;;14.21;34.86;100515.06;5097568;28;20036;-85
2022/05/11 04:15:24;;;;;;;4.82;2.40;;;;;;;14.29;35.05;100528.97;5103702;28;20582;-83
2022/05/11 04:17:49;;;;;;;3.22;2.15;;;;;;;14.27;35.15;100522.13;5093927;28;20126;-85
2022/05/11 04:20:17;;;;;;;5.10;2.38;;;;;;;14.31;35.20;100517.63;5107828;28;20549;-82
2022/05/11 04:22:43;;;;;;;3.33;2.13;;;;;;;14.36;34.65;100515.56;5095576;28;20040;-86
2022/05/11 04:25:10;;;;;;;7.78;2.42;;;;;;;14.42;35.03;100514.34;5108496;28;20039;-82
2022/05/11 04:27:36;;;;;;;6.45;2.20;;;;;;;14.53;34.67;100511.38;5106598;28;20131;-81
2022/05/11 04:30:04;;;;;;;4.68;2.17;;;;;;;14.50;34.74;100512.00;5094360;28;20146;-82
2022/05/11 04:32:30;;;;;;;4.95;2.55;;;;;;;14.37;34.88;100511.66;5104869;28;20405;-82
2022/05/11 04:34:55;;;;;;;4.32;2.03;;;;;;;14.34;34.86;100511.47;5108480;28;20044;-82
2022/05/11 04:37:21;;;;;;;5.65;2.60;;;;;;;14.26;34.54;100510.28;5104753;28;20035;-81
2022/05/11 04:39:46;;;;;;;5.47;2.38;;;;;;;14.30;35.16;100504.94;5097771;28;20101;-82
2022/05/11 04:42:12;;;;;;;4.68;2.20;;;;;;;14.31;35.20;100496.34;5102279;28;20078;-82
2022/05/11 04:44:38;;;;;;;8.02;2.90;;;;;;;14.40;35.20;100494.47;5112658;28;20069;-82
2022/05/11 04:47:08;;;;;;;5.72;2.55;;;;;;;14.52;34.72;100501.44;5098081;28;20036;-81
2022/05/11 04:49:33;;;;;;;5.60;2.10;;;;;;;14.61;34.22;100489.38;5098640;28;20040;-81
2022/05/11 04:52:02;;;;;;;4.97;2.10;;;;;;;14.61;34.86;100483.84;5104119;28;20036;-82
2022/05/11 04:54:28;;;;;;;5.28;2.28;;;;;;;14.68;34.86;100481.47;5099510;28;20047;-82
2022/05/11 04:56:53;;;;;;;5.03;2.70;;;;;;;14.83;34.66;100474.75;5103232;28;20031;-81
2022/05/11 04:59:19;;;;;;;4.38;2.13;;;;;;;14.94;34.77;100476.16;5106118;28;20043;-81
2022/05/11 05:01:45;;;;;;;3.05;1.80;;;;;;;15.09;33.50;100472.97;5100330;28;20124;-81
2022/05/11 05:04:10;;;;;;;5.95;1.88;;;;;;;15.13;34.21;100477.91;5099135;28;20451;-82
2022/05/11 05:06:38;;;;;;;4.78;2.13;;;;;;;15.15;34.16;100481.16;5097326;28;20047;-82
2022/05/11 05:09:05;;;;;;;4.88;1.98;;;;;;;15.33;33.70;100474.59;5104765;28;20048;-82
2022/05/11 05:11:31;;;;;;;5.07;1.90;;;;;;;15.58;33.29;100470.31;5100999;28;20036;-82
2022/05/11 05:13:57;;;;;;;7.10;2.47;;;;;;;15.71;33.39;100461.13;5091850;28;20105;-80
2022/05/11 05:16:22;;;;;;;8.63;2.30;;;;;;;15.84;33.42;100459.41;5102274;28;20453;-79
2022/05/11 05:18:48;;;;;;;2.33;1.80;;;;;;;16.02;32.87;100454.72;5094898;28;20040;-78
2022/05/11 05:21:13;;;;;;;3.28;1.75;;;;;;;16.25;32.49;100453.47;5110989;27;20519;-77
2022/05/11 05:23:39;;;;;;;3.22;1.92;;;;;;;16.47;31.77;100456.06;5102340;28;20384;-77
2022/05/11 05:26:05;;;;;;;3.42;1.50;;;;;;;16.75;31.95;100458.56;5092603;28;20509;-79
2022/05/11 05:31:17;;;;;;;8.18;1.90;;;;;;;17.37;30.59;100444.28;5117463;27;20121;-80
2022/05/11 05:33:43;;;;;;;6.28;1.67;;;;;;;17.61;30.34;100433.41;5106375;28;20039;-80
2022/05/11 05:36:09;;;;;;;6.18;2.95;;;;;;;17.67;29.72;100429.28;5101944;28;20044;-79
2022/05/11 05:38:38;;;;;;;7.05;1.90;;;;;;;17.71;29.80;100430.28;5097364;28;20040;-79
2022/05/11 05:41:06;;;;;;;;;;;;;;;17.91;29.73;100430.66;5103293;28;20080;-80
2022/05/11 05:43:32;;;;;;;3.53;1.33;;;;;;;18.08;29.62;100433.34;5091130;28;19926;-78
2022/05/11 05:45:57;;;;;;;3.70;1.60;;;;;;;18.06;29.30;100441.19;5091977;28;20047;-78
2022/05/11 05:48:23;;;;;;;3.72;1.77;;;;;;;17.96;28.77;100425.72;5098436;28;20363;-79
2022/05/11 05:50:50;;;;;;;3.28;1.60;;;;;;;17.90;29.13;100429.03;5091028;28;20040;-86
2022/05/11 05:53:19;;;;;;;2.28;1.10;;;;;;;17.89;28.90;100416.31;5080762;28;20100;-82
2022/05/11 05:55:49;;;;;;;2.65;1.58;;;;;;;17.81;29.28;100419.94;5090151;28;20514;-80
2022/05/11 05:58:17;;;;;;;3.42;1.50;;;;;;;17.72;28.99;100406.94;5093944;28;20039;-80
2022/05/11 06:00:43;;;;;;;;;;;;;;;17.53;29.30;100403.75;5091059;28;20040;-80
2022/05/11 06:03:09;;;;;;;5.72;1.10;;;;;;;17.41;29.70;100409.16;5090631;28;19927;-80
2022/05/11 06:05:35;;;;;;;5.03;1.52;;;;;;;17.25;30.05;100408.09;5091685;28;20040;-78
2022/05/11 06:08:00;;;;;;;5.97;1.52;;;;;;;17.14;30.08;100397.34;5096682;28;20042;-78
2022/05/11 06:10:26;;;;;;;3.70;1.67;;;;;;;17.01;30.01;100400.31;5110894;28;20039;-78
2022/05/11 06:12:52;;;;;;;3.63;1.55;;;;;;;16.84;30.45;100390.09;5112012;28;20043;-78
2022/05/11 06:15:18;;;;;;;3.78;1.38;;;;;;;16.71;31.09;100396.63;5111889;28;20485;-78
2022/05/11 06:17:44;;;;;;;2.80;1.40;;;;;;;16.72;30.83;100395.50;5112120;28;20044;-78
2022/05/11 06:20:10;;;;;;;1.73;1.40;;;;;;;16.76;30.61;100388.97;5111614;28;20031;-78
2022/05/11 06:22:36;;;;;;;3.75;1.35;;;;;;;16.79;31.38;100377.22;5108881;28;20469;-78
2022/05/11 06:25:03;;;;;;;4.40;1.38;;;;;;;16.87;31.82;100368.09;5111006;28;20128;-78
2022/05/11 06:27:29;;;;;;;4.40;1.50;;;;;;;16.91;31.07;100375.72;5108869;28;20118;-78
2022/05/11 06:29:57;;;;;;;7.38;2.05;;;;;;;16.84;31.21;100367.94;5091717;28;20051;-78
2022/05/11 06:32:23;;;;;;;5.00;1.77;;;;;;;16.71;31.50;100361.44;5090264;28;20077;-78
2022/05/11 06:34:51;;;;;;;8.48;1.40;;;;;;;16.72;31.98;100356.69;5073284;28;20047;-78
2022/05/11 06:37:17;;;;;;;6.33;1.70;;;;;;;16.64;31.73;100365.78;5094255;28;20032;-78
2022/05/11 06:39:42;;;;;;;5.80;1.50;;;;;;;16.64;32.41;100361.06;5110224;28;20142;-78
2022/05/11 06:42:10;;;;;;;3.30;1.50;;;;;;;16.69;32.06;100369.25;5111763;28;20546;-78
2022/05/11 06:44:36;;;;;;;6.28;1.80;;;;;;;16.63;31.81;100356.69;5111551;28;20042;-78
2022/05/11 06:47:02;;;;;;;9.90;1.70;;;;;;;16.66;31.87;100357.97;5107459;28;20031;-78
2022/05/11 06:49:27;;;;;;;3.08;1.52;;;;;;;16.72;31.96;100357.50;5094220;28;20043;-78
2022/05/11 06:51:53;;;;;;;2.50;0.82;;;;;;;16.85;32.58;100367.59;5099768;28;20035;-77
2022/05/11 06:59:48;;;;;;;6.68;1.58;;;;;;;17.12;32.68;100366.38;5100831;28;20032;-77
2022/05/11 07:02:13;;;;;;;5.20;1.55;;;;;;;17.28;32.36;100357.50;5093054;28;20418;-78
2022/05/11 07:04:40;;;;;;;2.88;1.58;;;;;;;17.36;31.92;100354.69;5099705;28;20120;-77
2022/05/11 07:07:06;;;;;;;3.55;1.42;;;;;;;17.41;32.40;100350.91;5110164;28;20083;-77
2022/05/11 07:09:33;;;;;;;5.72;1.70;;;;;;;17.40;31.52;100341.78;5111404;28;20039;-77
2022/05/11 07:12:19;;;;;;;3.85;1.67;;;;;;;17.38;31.79;100346.03;5091489;28;20490;-77
2022/05/11 07:14:48;;;;;;;2.83;1.02;;;;;;;17.42;31.92;100347.81;5108663;28;20064;-77
2022/05/11 07:17:39;;;;;;;9.57;2.03;;;;;;;17.34;31.65;100337.56;5105379;27;20031;-77
2022/05/11 07:20:13;;;;;;;4.18;1.60;;;;;;;17.19;31.81;100324.28;5094052;28;20051;-77
2022/05/11 07:22:38;;;;;;;6.15;1.85;;;;;;;17.10;31.95;100315.97;5125862;27;20070;-76
2022/05/11 07:25:09;;;;;;;7.60;1.75;;;;;;;17.03;31.42;100309.34;5107379;27;20071;-77
2022/05/11 07:27:34;;;;;;;6.13;1.77;;;;;;;16.92;31.14;100302.53;5109109;27;20051;-77
2022/05/11 07:30:00;;;;;;;4.53;2.20;;;;;;;16.87;31.88;100301.56;5114364;27;20036;-77
2022/05/11 07:32:27;;;;;;;4.18;1.83;;;;;;;16.89;31.48;100298.47;5102329;28;20608;-77
2022/05/11 07:34:53;;;;;;;4.05;1.83;;;;;;;16.88;31.74;100305.16;5094532;28;20497;-77
2022/05/11 07:37:20;;;;;;;3.83;1.67;;;;;;;16.82;31.60;100312.00;5114781;28;20513;-77
2022/05/11 07:39:46;;;;;;;6.75;1.73;;;;;;;16.77;31.20;100298.31;5113585;28;20053;-77
2022/05/11 07:42:12;;;;;;;5.32;2.67;;;;;;;16.66;31.71;100288.72;5102575;28;20613;-78
2022/05/11 07:44:38;;;;;;;4.15;2.83;;;;;;;16.69;31.76;100301.94;5113276;28;20050;-78
2022/05/11 07:47:04;;;;;;;6.95;2.30;;;;;;;16.67;31.70;100298.69;5115321;28;20092;-77
2022/05/11 07:49:30;;;;;;;6.35;2.33;;;;;;;16.65;31.83;100310.06;5103875;28;20039;-77
2022/05/11 07:51:55;;;;;;;5.45;1.90;;;;;;;16.63;31.57;100304.03;5107270;28;20493;-76
2022/05/11 07:54:21;;;;;;;6.95;1.83;;;;;;;16.64;31.88;100293.75;5111619;28;20437;-76
2022/05/11 08:02:16;;;;;;;5.18;1.88;;;;;;;16.68;32.10;100294.78;5114622;28;20098;-78
2022/05/11 08:04:41;;;;;;;6.68;1.98;;;;;;;16.74;32.16;100277.66;5114855;28;20085;-79
2022/05/11 08:07:08;;;;;;;3.50;2.05;;;;;;;16.87;31.55;100286.91;5114680;28;20139;-79
2022/05/11 08:09:34;;;;;;;3.97;1.75;;;;;;;16.96;31.77;100278.53;5102643;28;20123;-79
2022/05/11 08:12:00;;;;;;;3.63;1.90;;;;;;;17.15;31.67;100276.97;5092927;28;20577;-76
2022/05/11 08:14:26;;;;;;;4.07;1.33;;;;;;;17.40;31.28;100275.22;5094549;28;20040;-77
2022/05/11 08:16:52;;;;;;;2.92;1.63;;;;;;;17.72;30.74;100262.63;5094519;28;20059;-74
2022/05/11 08:19:27;;;;;;;3.28;1.42;;;;;;;17.90;30.75;100268.84;5093857;28;20143;-74
2022/05/11 08:21:54;;;;;;;3.13;1.23;;;;;;;17.97;30.79;100268.28;5093173;28;20039;-74
2022/05/11 08:24:21;;;;;;;4.85;1.75;;;;;;;18.11;30.54;100232.72;5092698;28;20036;-74
2022/05/11 08:26:47;;;;;;;5.10;1.70;;;;;;;18.20;30.24;100238.19;5093828;28;20127;-74
2022/05/11 08:33:19;;;;;;;6.35;2.03;;;;;;;18.19;29.64;100226.25;5093819;28;20055;-74
2022/05/11 08:34:44;;;;;;;4.20;1.35;;;;;;;18.28;29.82;100204.78;5093746;28;20036;-74
2022/05/11 08:37:10;;;;;;;2.53;1.40;;;;;;;18.37;29.46;100216.59;5093847;28;20104;-74
2022/05/11 08:39:35;;;;;;;3.72;1.30;;;;;;;18.32;29.39;100211.25;5093624;28;20036;-75
2022/05/11 08:42:02;;;;;;;4.22;1.40;;;;;;;18.22;29.93;100208.94;5096148;28;20406;-74
2022/05/11 08:44:32;;;;;;;6.65;1.75;;;;;;;18.19;29.84;100206.81;5112874;28;20039;-75
2022/05/11 08:47:31;;;;;;;4.88;1.58;;;;;;;18.13;29.83;100208.19;5113873;28;20134;-75
2022/05/11 08:50:09;;;;;;;1.27;1.08;;;;;;;18.05;29.83;100212.69;5113871;28;20043;-76
2022/05/11 08:52:35;;;;;;;2.83;1.40;;;;;;;18.04;29.75;100201.91;5104283;28;20414;-77
2022/05/11 08:55:39;;;;;;;2.58;1.55;;;;;;;18.01;30.36;100203.41;5108344;27;20032;-77
2022/05/11 08:58:11;;;;;;;6.38;1.83;;;;;;;18.04;30.22;100205.50;5106295;27;20139;-78
2022/05/11 09:00:39;;;;;;;4.22;1.40;;;;;;;17.92;30.19;100190.78;5100257;28;20667;-77
2022/05/11 09:03:11;;;;;;;5.28;2.17;;;;;;;17.77;30.20;100204.13;5095155;28;20129;-77
2022/05/11 09:05:36;;;;;;;3.63;1.55;;;;;;;17.59;30.61;100187.94;5097307;28;20476;-77
2022/05/11 09:08:04;;;;;;;3.42;1.60;;;;;;;17.51;30.07;100189.63;5082760;28;20064;-79
2022/05/11 09:10:34;;;;;;;3.80;1.50;;;;;;;17.43;30.27;100174.69;5092832;28;20402;-77
2022/05/11 09:13:04;;;;;;;2.53;1.48;;;;;;;17.32;31.01;100178.19;5094791;28;20032;-77
2022/05/11 09:15:53;;;;;;;3.38;1.65;;;;;;;17.16;31.18;100169.66;5113283;28;20035;-77
2022/05/11 09:18:32;;;;;;;3.80;1.65;;;;;;;17.11;31.30;100161.53;5082303;28;20047;-78
2022/05/11 09:21:00;;;;;;;2.85;1.30;;;;;;;17.05;30.70;100179.53;5093157;28;20051;-78
2022/05/11 09:23:32;;;;;;;3.22;1.17;;;;;;;16.98;31.33;100168.13;5112890;27;20044;-77
2022/05/11 09:26:04;;;;;;;5.22;1.58;;;;;;;16.95;31.23;100161.31;5091385;28;20134;-77
2022/05/11 09:28:34;;;;;;;4.75;1.50;;;;;;;16.95;31.59;100164.09;5092642;28;20047;-77
2022/05/11 09:31:09;;;;;;;3.85;1.25;;;;;;;17.01;31.46;100170.22;5091615;28;20111;-75
2022/05/11 09:33:39;;;;;;;5.38;1.27;;;;;;;17.04;31.59;100175.13;5098338;28;20032;-75
2022/05/11 09:36:07;;;;;;;9.93;1.75;;;;;;;17.13;31.64;100162.81;5091986;28;20048;-76
2022/05/11 09:38:40;;;;;;;8.25;1.40;;;;;;;17.26;31.11;100157.38;5084925;28;20042;-77
2022/05/11 09:41:29;;;;;;;5.30;1.45;;;;;;;17.41;31.40;100163.13;5099016;27;20050;-77
2022/05/11 09:43:56;;;;;;;3.85;2.03;;;;;;;17.53;31.28;100156.81;5111797;27;20490;-76
2022/05/11 09:46:34;;;;;;;2.88;1.52;;;;;;;17.68;31.23;100147.88;5102282;28;20134;-78
2022/05/11 09:49:05;;;;;;;1.75;1.38;;;;;;;17.77;30.88;100156.94;5108424;28;20035;-76
2022/05/11 09:51:40;;;;;;;2.92;1.70;;;;;;;17.82;30.87;100155.09;5102378;28;20115;-76
2022/05/11 09:54:18;;;;;;;1.85;1.10;;;;;;;17.87;31.04;100150.16;5092456;28;20073;-76
2022/05/11 09:56:50;;;;;;;2.50;1.30;;;;;;;17.80;30.55;100146.31;5092432;28;20111;-78
2022/05/11 09:59:18;;;;;;;5.60;1.33;;;;;;;17.64;30.69;100141.38;5107205;28;20074;-81
2022/05/11 10:01:44;;;;;;;4.40;1.55;;;;;;;17.53;31.13;100144.88;5096850;28;20032;-77
2022/05/11 10:04:11;;;;;;;3.95;1.30;;;;;;;17.40;30.98;100132.94;5074692;28;20051;-77
2022/05/11 10:06:51;;;;;;;2.75;1.35;;;;;;;17.30;31.38;100139.69;5093136;28;20569;-77
2022/05/11 10:09:21;;;;;;;1.30;1.00;;;;;;;17.26;31.31;100132.41;5090858;28;20067;-76
2022/05/11 10:11:50;;;;;;;2.42;1.45;;;;;;;17.21;31.72;100118.75;5090897;28;20032;-76
2022/05/11 10:23:06;;;;;;;1.83;0.80;;;;;;;17.01;32.22;100137.81;5098328;28;20490;-75
2022/05/11 10:25:42;;;;;;;6.63;1.40;;;;;;;16.94;32.31;100143.06;5091857;28;20047;-76
2022/05/11 10:28:28;;;;;;;1.48;0.50;;;;;;;16.88;32.31;100138.88;5090352;28;20105;-75
2022/05/11 10:30:57;;;;;;;2.90;1.30;;;;;;;16.84;32.81;100149.00;5099958;28;20040;-76
2022/05/11 10:33:53;;;;;;;1.92;1.20;;;;;;;16.74;33.13;100118.91;5106647;27;20035;-76
2022/05/11 10:36:34;;;;;;;2.00;1.08;;;;;;;16.64;33.19;100113.69;5114190;27;20053;-76
2022/05/11 10:39:31;;;;;;;1.15;0.85;;;;;;;16.57;33.37;100105.94;5090168;28;20410;-76
2022/05/11 10:42:07;;;;;;;2.67;1.20;;;;;;;16.50;33.95;100100.09;5090433;28;20044;-75
2022/05/11 10:44:32;;;;;;;3.72;1.58;;;;;;;16.52;33.81;100109.72;5107024;28;20046;-77
2022/05/11 10:47:20;;;;;;;3.17;1.10;;;;;;;16.53;33.67;100097.47;5098126;28;20035;-77
2022/05/11 10:50:42;;;;;;;2.88;1.50;;;;;;;16.49;34.16;100091.00;5092523;28;20456;-77
2022/05/11 10:53:14;;;;;;;1.90;1.25;;;;;;;16.53;34.17;100094.72;5066319;28;20459;-76
2022/05/11 10:56:14;;;;;;;3.60;1.55;;;;;;;16.48;34.56;100074.69;5050389;28;20461;-76
2022/05/11 10:58:51;;;;;;;3.50;1.35;;;;;;;16.49;35.37;100068.03;5061852;28;20104;-76
2022/05/11 11:01:17;;;;;;;3.63;1.58;;;;;;;16.49;34.72;100070.78;5095728;28;20038;-77
2022/05/11 11:03:46;;;;;;;3.30;1.45;;;;;;;16.57;36.12;100078.22;5097263;27;20504;-75
2022/05/11 11:10:04;;;;;;;2.45;1.08;;;;;;;16.61;34.18;100050.66;5107383;28;20479;-77
2022/05/11 11:13:07;;;;;;;2.65;1.27;;;;;;;16.65;34.40;100046.06;5113391;28;20099;-77
2022/05/11 11:15:36;;;;;;;4.70;1.60;;;;;;;16.71;33.87;100053.91;5104259;28;20451;-77
2022/05/11 11:18:03;;;;;;;1.77;1.20;;;;;;;16.75;33.75;100048.47;5111910;28;20032;-77
2022/05/11 11:20:34;;;;;;;3.05;1.25;;;;;;;16.78;33.62;100042.25;5110005;28;20042;-76
2022/05/11 11:23:14;;;;;;;2.22;1.27;;;;;;;16.74;33.36;100038.56;5103980;28;20113;-77
2022/05/11 11:26:22;;;;;;;2.60;1.60;;;;;;;16.71;33.52;100034.50;5096671;28;20080;-77
2022/05/11 11:29:00;;;;;;;5.20;2.22;;;;;;;16.74;33.52;100033.81;5078652;28;20078;-77
2022/05/11 11:31:27;;;;;;;5.65;1.80;;;;;;;16.78;33.88;100020.91;5106843;28;20036;-77
2022/05/11 11:33:54;;;;;;;4.38;1.67;;;;;;;16.78;33.37;100009.00;5097351;28;20048;-77
2022/05/11 11:36:28;;;;;;;2.92;1.80;;;;;;;16.83;33.65;100008.81;5107347;28;20143;-77
2022/05/11 11:38:58;;;;;;;5.95;2.03;;;;;;;16.81;33.00;100009.16;5110808;28;20038;-77
2022/05/11 11:41:30;;;;;;;3.33;1.90;;;;;;;16.80;33.54;100004.75;5092022;28;20039;-78
2022/05/11 11:44:01;;;;;;;3.78;1.80;;;;;;;16.77;33.25;99994.34;5111029;28;20039;-77
2022/05/11 11:46:32;;;;;;;4.80;1.92;;;;;;;16.73;32.88;99998.16;5098316;28;20064;-78
2022/05/11 11:49:07;;;;;;;5.65;2.15;;;;;;;16.71;32.95;99994.91;5094817;28;20535;-77
2022/05/11 11:51:50;;;;;;;3.45;1.67;;;;;;;16.66;32.83;99989.50;5105990;28;20039;-77
2022/05/11 11:54:37;;;;;;;4.18;2.05;;;;;;;16.64;32.72;99980.72;5122409;28;20129;-77
2022/05/11 11:57:12;;;;;;;2.25;1.80;;;;;;;16.63;32.87;99974.38;5117881;28;20391;-77
2022/05/11 11:59:43;;;;;;;2.80;1.67;;;;;;;16.58;32.25;99978.16;5090568;28;20058;-77
2022/05/11 12:02:24;;;;;;;4.97;1.42;;;;;;;16.60;32.36;99980.59;5086036;28;20040;-78
2022/05/11 12:05:10;;;;;;;4.38;1.58;;;;;;;16.55;32.46;99978.03;5094798;28;20117;-78
2022/05/11 12:16:10;;;;;;;6.20;2.45;;;;;;;16.62;32.33;99974.72;5093147;28;20432;-77
2022/05/11 12:18:38;;;;;;;6.20;2.30;;;;;;;16.63;32.40;99965.25;5092613;28;20118;-77
2022/05/11 12:21:11;;;;;;;5.65;2.92;;;;;;;16.59;32.52;99970.66;5094016;28;20051;-77